SAS546 EKBI-EKCH
Flight info
| Callsign | SAS546 |
|---|---|
| Flight time | 0h 27m |
| Altitude | 17000 |
| Route | ABINO T56 TESPI |
| Aircraft | A20N/M-SDE2E3FGHIRWXY/LB1 |
Departure
| Time | 2026-04-22 19:42 |
|---|---|
| Airport | Billund Airport (EKBI) |
Arrival
| Time | 2026-04-22 20:10 |
|---|---|
| Airport | Copenhagen Kastrup Airport (EKCH) |
| Time | Latitude | Longitude | Altitude | Speed | Heading |
|---|---|---|---|---|---|
| 2026-04-22 18:58 | 55.74534 | 9.14813 | 244 ft | 0 kts | 356° |
| 2026-04-22 19:28 | 55.74526 | 9.14813 | 244 ft | 3 kts | 356° |
| 2026-04-22 19:28 | 55.74505 | 9.14815 | 244 ft | 3 kts | 356° |
| 2026-04-22 19:28 | 55.74485 | 9.14817 | 244 ft | 3 kts | 356° |
| 2026-04-22 19:29 | 55.74465 | 9.14819 | 244 ft | 3 kts | 5° |
| 2026-04-22 19:29 | 55.74453 | 9.14817 | 244 ft | 3 kts | 71° |
| 2026-04-22 19:29 | 55.74451 | 9.14801 | 244 ft | 2 kts | 87° |
| 2026-04-22 19:29 | 55.74449 | 9.14771 | 244 ft | 2 kts | 86° |
| 2026-04-22 19:30 | 55.74449 | 9.14765 | 244 ft | 0 kts | 87° |
| 2026-04-22 19:36 | 55.74449 | 9.14774 | 244 ft | 3 kts | 87° |
| 2026-04-22 19:37 | 55.74451 | 9.14870 | 244 ft | 14 kts | 88° |
| 2026-04-22 19:37 | 55.74384 | 9.14980 | 244 ft | 15 kts | 178° |
| 2026-04-22 19:37 | 55.74284 | 9.14989 | 244 ft | 14 kts | 176° |
| 2026-04-22 19:37 | 55.74201 | 9.15049 | 244 ft | 12 kts | 109° |
| 2026-04-22 19:38 | 55.74202 | 9.15195 | 244 ft | 13 kts | 86° |
| 2026-04-22 19:38 | 55.74208 | 9.15430 | 244 ft | 22 kts | 87° |
| 2026-04-22 19:38 | 55.74216 | 9.15710 | 244 ft | 23 kts | 87° |
| 2026-04-22 19:38 | 55.74225 | 9.15988 | 244 ft | 23 kts | 86° |
| 2026-04-22 19:39 | 55.74234 | 9.16268 | 244 ft | 22 kts | 87° |
| 2026-04-22 19:39 | 55.74242 | 9.16535 | 244 ft | 22 kts | 86° |
| 2026-04-22 19:39 | 55.74251 | 9.16800 | 244 ft | 21 kts | 87° |
| 2026-04-22 19:39 | 55.74193 | 9.16909 | 245 ft | 11 kts | 176° |
| 2026-04-22 19:40 | 55.74126 | 9.16913 | 248 ft | 8 kts | 180° |
| 2026-04-22 19:40 | 55.74087 | 9.16865 | 248 ft | 7 kts | 253° |
| 2026-04-22 19:40 | 55.74086 | 9.16848 | 248 ft | 0 kts | 264° |
| 2026-04-22 19:41 | 55.74083 | 9.16777 | 249 ft | 28 kts | 266° |
| 2026-04-22 19:42 | 55.74059 | 9.16016 | 244 ft | 95 kts | 266° |
| 2026-04-22 19:42 | 55.74014 | 9.14487 | 369 ft | 138 kts | 269° |
| 2026-04-22 19:42 | 55.73962 | 9.12761 | 1032 ft | 140 kts | 271° |
| 2026-04-22 19:42 | 55.74126 | 9.11087 | 1774 ft | 145 kts | 301° |
| 2026-04-22 19:43 | 55.76174 | 9.10119 | 2590 ft | 205 kts | 21° |
| 2026-04-22 19:43 | 55.77427 | 9.11802 | 2939 ft | 242 kts | 37° |
| 2026-04-22 19:43 | 55.78665 | 9.13948 | 3713 ft | 252 kts | 40° |
| 2026-04-22 19:44 | 55.79842 | 9.16307 | 4629 ft | 260 kts | 51° |
| 2026-04-22 19:44 | 55.80715 | 9.19190 | 5578 ft | 267 kts | 62° |
| 2026-04-22 19:44 | 55.81427 | 9.22274 | 6567 ft | 271 kts | 65° |
| 2026-04-22 19:44 | 55.82095 | 9.25428 | 7537 ft | 273 kts | 66° |
| 2026-04-22 19:45 | 55.82753 | 9.28622 | 8458 ft | 276 kts | 66° |
| 2026-04-22 19:45 | 55.83405 | 9.31826 | 9342 ft | 280 kts | 66° |
| 2026-04-22 19:45 | 55.84072 | 9.35117 | 10232 ft | 285 kts | 67° |
| 2026-04-22 19:45 | 55.84767 | 9.38545 | 10654 ft | 305 kts | 67° |
| 2026-04-22 19:46 | 55.85309 | 9.42311 | 10980 ft | 330 kts | 79° |
| 2026-04-22 19:46 | 55.85386 | 9.46492 | 11547 ft | 345 kts | 90° |
| 2026-04-22 19:46 | 55.85104 | 9.50761 | 11897 ft | 349 kts | 97° |
| 2026-04-22 19:46 | 55.84603 | 9.54992 | 11980 ft | 350 kts | 101° |
| 2026-04-22 19:47 | 55.83994 | 9.59199 | 11982 ft | 351 kts | 102° |
| 2026-04-22 19:47 | 55.83354 | 9.63397 | 11986 ft | 352 kts | 102° |
| 2026-04-22 19:47 | 55.82932 | 9.66181 | 11979 ft | 352 kts | 102° |
| 2026-04-22 19:47 | 55.82111 | 9.71788 | 11978 ft | 352 kts | 102° |
| 2026-04-22 19:48 | 55.81516 | 9.76022 | 11979 ft | 352 kts | 101° |
| 2026-04-22 19:48 | 55.80935 | 9.80258 | 11976 ft | 352 kts | 101° |
| 2026-04-22 19:48 | 55.80360 | 9.84511 | 11976 ft | 352 kts | 101° |
| 2026-04-22 19:48 | 55.79789 | 9.88752 | 11975 ft | 352 kts | 101° |
| 2026-04-22 19:49 | 55.79219 | 9.92993 | 11974 ft | 352 kts | 101° |
| 2026-04-22 19:49 | 55.78654 | 9.97172 | 11976 ft | 352 kts | 101° |
| 2026-04-22 19:49 | 55.78080 | 10.01404 | 11975 ft | 352 kts | 101° |
| 2026-04-22 19:49 | 55.77503 | 10.05640 | 11977 ft | 352 kts | 101° |
| 2026-04-22 19:50 | 55.76924 | 10.09874 | 11971 ft | 352 kts | 101° |
| 2026-04-22 19:50 | 55.76343 | 10.14105 | 11968 ft | 352 kts | 101° |
| 2026-04-22 19:50 | 55.75760 | 10.18332 | 11967 ft | 353 kts | 101° |
| 2026-04-22 19:50 | 55.75176 | 10.22558 | 11963 ft | 353 kts | 101° |
| 2026-04-22 19:51 | 55.74589 | 10.26796 | 11965 ft | 353 kts | 101° |
| 2026-04-22 19:51 | 55.74000 | 10.31042 | 12243 ft | 356 kts | 101° |
| 2026-04-22 19:51 | 55.73411 | 10.35277 | 12762 ft | 356 kts | 101° |
| 2026-04-22 19:51 | 55.72815 | 10.39540 | 12950 ft | 355 kts | 101° |
| 2026-04-22 19:52 | 55.72218 | 10.43802 | 12963 ft | 356 kts | 101° |
| 2026-04-22 19:52 | 55.71620 | 10.48064 | 12961 ft | 356 kts | 101° |
| 2026-04-22 19:52 | 55.71018 | 10.52334 | 12961 ft | 356 kts | 101° |
| 2026-04-22 19:52 | 55.70416 | 10.56604 | 12961 ft | 356 kts | 101° |
| 2026-04-22 19:53 | 55.69820 | 10.60813 | 12952 ft | 356 kts | 101° |
| 2026-04-22 19:53 | 55.69215 | 10.65073 | 12953 ft | 356 kts | 102° |
| 2026-04-22 19:53 | 55.68806 | 10.67948 | 12953 ft | 356 kts | 102° |
| 2026-04-22 19:53 | 55.67999 | 10.73602 | 12953 ft | 356 kts | 101° |
| 2026-04-22 19:54 | 55.67389 | 10.77861 | 12954 ft | 356 kts | 102° |
| 2026-04-22 19:54 | 55.66778 | 10.82117 | 12947 ft | 356 kts | 102° |
| 2026-04-22 19:54 | 55.66171 | 10.86335 | 12948 ft | 356 kts | 102° |
| 2026-04-22 19:54 | 55.65557 | 10.90590 | 12947 ft | 356 kts | 102° |
| 2026-04-22 19:55 | 55.64943 | 10.94836 | 12772 ft | 354 kts | 102° |
| 2026-04-22 19:55 | 55.64334 | 10.99022 | 12373 ft | 348 kts | 102° |
| 2026-04-22 19:55 | 55.63733 | 11.03146 | 11949 ft | 342 kts | 102° |
| 2026-04-22 19:55 | 55.63139 | 11.07212 | 11467 ft | 340 kts | 102° |
| 2026-04-22 19:56 | 55.62547 | 11.11260 | 10968 ft | 338 kts | 102° |
| 2026-04-22 19:56 | 55.61966 | 11.15229 | 10489 ft | 336 kts | 102° |
| 2026-04-22 19:56 | 55.61383 | 11.19191 | 10250 ft | 327 kts | 101° |
| 2026-04-22 19:56 | 55.60818 | 11.23008 | 10094 ft | 315 kts | 101° |
| 2026-04-22 19:57 | 55.60270 | 11.26693 | 9919 ft | 304 kts | 101° |
| 2026-04-22 19:57 | 55.59916 | 11.29080 | 9721 ft | 300 kts | 101° |
| 2026-04-22 19:57 | 55.59390 | 11.32631 | 9342 ft | 297 kts | 101° |
| 2026-04-22 19:57 | 55.58699 | 11.37298 | 8799 ft | 295 kts | 101° |
| 2026-04-22 19:58 | 55.58179 | 11.40805 | 8391 ft | 294 kts | 101° |
| 2026-04-22 19:58 | 55.57828 | 11.43172 | 8117 ft | 293 kts | 101° |
| 2026-04-22 19:58 | 55.57309 | 11.46649 | 7717 ft | 292 kts | 101° |
| 2026-04-22 19:58 | 55.56797 | 11.50071 | 7330 ft | 291 kts | 101° |
| 2026-04-22 19:59 | 55.56278 | 11.53529 | 6947 ft | 290 kts | 101° |
| 2026-04-22 20:00 | 55.53186 | 11.73980 | 4548 ft | 285 kts | 102° |
| 2026-04-22 20:00 | 55.52674 | 11.77342 | 4198 ft | 282 kts | 102° |
| 2026-04-22 20:01 | 55.52162 | 11.80679 | 4039 ft | 279 kts | 102° |
| 2026-04-22 20:01 | 55.51660 | 11.83958 | 4020 ft | 280 kts | 102° |
| 2026-04-22 20:01 | 55.51151 | 11.87282 | 4015 ft | 281 kts | 102° |
| 2026-04-22 20:01 | 55.50640 | 11.90612 | 4014 ft | 280 kts | 102° |
| 2026-04-22 20:02 | 55.50128 | 11.93942 | 4015 ft | 281 kts | 102° |
| 2026-04-22 20:02 | 55.49616 | 11.97269 | 4016 ft | 281 kts | 102° |
| 2026-04-22 20:02 | 55.49100 | 12.00610 | 4015 ft | 281 kts | 102° |
| 2026-04-22 20:02 | 55.48589 | 12.03900 | 4015 ft | 281 kts | 102° |
| 2026-04-22 20:03 | 55.48072 | 12.07234 | 4015 ft | 281 kts | 102° |
| 2026-04-22 20:03 | 55.47555 | 12.10561 | 4008 ft | 281 kts | 102° |
| 2026-04-22 20:03 | 55.47042 | 12.13847 | 4009 ft | 281 kts | 102° |
| 2026-04-22 20:03 | 55.46524 | 12.17169 | 4009 ft | 281 kts | 102° |
| 2026-04-22 20:04 | 55.46005 | 12.20490 | 3719 ft | 281 kts | 102° |
| 2026-04-22 20:04 | 55.45487 | 12.23794 | 3370 ft | 278 kts | 102° |
| 2026-04-22 20:04 | 55.44973 | 12.27060 | 3077 ft | 274 kts | 102° |
| 2026-04-22 20:04 | 55.44463 | 12.30300 | 3014 ft | 275 kts | 102° |
| 2026-04-22 20:05 | 55.44181 | 12.33611 | 2684 ft | 272 kts | 84° |
| 2026-04-22 20:05 | 55.44634 | 12.36753 | 2312 ft | 261 kts | 60° |
| 2026-04-22 20:05 | 55.45581 | 12.39393 | 2047 ft | 248 kts | 43° |
| 2026-04-22 20:05 | 55.46791 | 12.41352 | 2002 ft | 229 kts | 33° |
| 2026-04-22 20:06 | 55.47962 | 12.43025 | 2038 ft | 201 kts | 33° |
| 2026-04-22 20:06 | 55.48951 | 12.44522 | 2010 ft | 174 kts | 34° |
| 2026-04-22 20:06 | 55.49795 | 12.45832 | 2009 ft | 152 kts | 33° |
| 2026-04-22 20:06 | 55.50585 | 12.47045 | 2027 ft | 153 kts | 33° |
| 2026-04-22 20:07 | 55.51403 | 12.48295 | 2003 ft | 157 kts | 33° |
| 2026-04-22 20:07 | 55.52223 | 12.49556 | 1934 ft | 154 kts | 34° |
| 2026-04-22 20:07 | 55.53004 | 12.50765 | 1723 ft | 144 kts | 33° |
| 2026-04-22 20:07 | 55.53736 | 12.51891 | 1495 ft | 140 kts | 33° |
| 2026-04-22 20:08 | 55.54475 | 12.53027 | 1297 ft | 141 kts | 32° |
| 2026-04-22 20:08 | 55.55219 | 12.54175 | 1070 ft | 142 kts | 33° |
| 2026-04-22 20:08 | 55.55968 | 12.55330 | 874 ft | 142 kts | 34° |
| 2026-04-22 20:08 | 55.56700 | 12.56461 | 683 ft | 136 kts | 36° |
| 2026-04-22 20:09 | 55.57411 | 12.57559 | 537 ft | 136 kts | 36° |
| 2026-04-22 20:09 | 55.58134 | 12.58653 | 382 ft | 137 kts | 37° |
| 2026-04-22 20:09 | 55.58848 | 12.59776 | 166 ft | 136 kts | 37° |
| 2026-04-22 20:09 | 55.59555 | 12.60872 | 36 ft | 133 kts | 37° |
| 2026-04-22 20:10 | 55.60193 | 12.61841 | 21 ft | 98 kts | 42° |
| 2026-04-22 20:10 | 55.60489 | 12.62261 | 22 ft | 37 kts | 25° |
| 2026-04-22 20:10 | 55.60609 | 12.62334 | 22 ft | 0 kts | 14° |
| 2026-04-22 20:11 | 55.60642 | 12.62345 | 22 ft | 14 kts | 11° |
| 2026-04-22 20:12 | 55.60793 | 12.62422 | 20 ft | 30 kts | 29° |
| 2026-04-22 20:12 | 55.60973 | 12.62685 | 20 ft | 35 kts | 41° |
| 2026-04-22 20:12 | 55.61154 | 12.62967 | 21 ft | 34 kts | 41° |
| 2026-04-22 20:12 | 55.61322 | 12.63226 | 20 ft | 31 kts | 41° |
| 2026-04-22 20:13 | 55.61473 | 12.63459 | 20 ft | 29 kts | 41° |
| 2026-04-22 20:13 | 55.61624 | 12.63692 | 20 ft | 28 kts | 41° |
| 2026-04-22 20:13 | 55.61766 | 12.63912 | 20 ft | 26 kts | 40° |
| 2026-04-22 20:13 | 55.61909 | 12.64102 | 20 ft | 26 kts | 27° |
| 2026-04-22 20:14 | 55.62072 | 12.64239 | 22 ft | 26 kts | 25° |
| 2026-04-22 20:14 | 55.62222 | 12.64363 | 20 ft | 20 kts | 25° |
| 2026-04-22 20:14 | 55.62314 | 12.64414 | 20 ft | 0 kts | 15° |
| 2026-04-22 20:15 | 55.62317 | 12.64415 | 23 ft | 3 kts | 15° |
| 2026-04-22 20:16 | 55.62404 | 12.64458 | 20 ft | 21 kts | 15° |
| 2026-04-22 20:16 | 55.62505 | 12.64444 | 20 ft | 13 kts | 314° |
| 2026-04-22 20:16 | 55.62556 | 12.64312 | 20 ft | 13 kts | 303° |
| 2026-04-22 20:16 | 55.62606 | 12.64178 | 20 ft | 13 kts | 303° |
| 2026-04-22 20:17 | 55.62656 | 12.64044 | 20 ft | 13 kts | 303° |
| 2026-04-22 20:17 | 55.62715 | 12.64013 | 20 ft | 9 kts | 27° |
| 2026-04-22 20:17 | 55.62741 | 12.64043 | 20 ft | 0 kts | 34° |